Time;durP1;ratioP1;P1;durP2;ratioP2;P2;SDS_P1;SDS_P2;PMS_P1;PMS_P2;Temp;Humidity;BMP_temperature;BMP_pressure;BME280_temperature;BME280_humidity;BME280_pressure;Samples;Min_cycle;Max_cycle;Signal;HPM_P1;HPM_P2
2023/12/08 00:00:56;;;;;;;173.30;76.72;;;;;;;0.37;100.00;99971.13;4958405;28;20038;-85
2023/12/08 00:03:22;;;;;;;331.85;164.10;;;;;;;0.33;100.00;99964.31;4958308;28;20041;-85
2023/12/08 00:05:47;;;;;;;228.48;110.93;;;;;;;0.33;100.00;99950.66;4958238;28;20035;-85
2023/12/08 00:08:13;;;;;;;204.68;92.63;;;;;;;0.52;100.00;99977.13;4958477;28;20472;-85
2023/12/08 00:10:38;;;;;;;337.35;183.40;;;;;;;0.47;100.00;99954.06;4975844;28;20038;-85
2023/12/08 00:13:03;;;;;;;224.45;109.25;;;;;;;0.44;100.00;99954.91;4975461;28;20122;-85
2023/12/08 00:15:29;;;;;;;178.48;78.38;;;;;;;0.42;100.00;99958.31;4958024;28;20472;-85
2023/12/08 00:17:55;;;;;;;322.08;166.45;;;;;;;0.47;100.00;99967.75;4958000;28;20081;-85
2023/12/08 00:20:20;;;;;;;214.95;106.28;;;;;;;0.45;100.00;99956.63;4975507;28;20485;-85
2023/12/08 00:22:45;;;;;;;188.38;79.43;;;;;;;0.20;100.00;99908.81;4957906;28;20034;-85
2023/12/08 00:25:11;;;;;;;186.55;78.90;;;;;;;0.43;100.00;99955.78;4953133;29;20070;-85
2023/12/08 00:27:37;;;;;;;180.57;78.95;;;;;;;0.34;100.00;99953.22;4953544;29;20039;-85
2023/12/08 00:30:03;;;;;;;163.05;72.20;;;;;;;0.31;100.00;99931.88;4953661;29;20134;-85
2023/12/08 00:32:28;;;;;;;173.90;80.57;;;;;;;0.51;100.00;99955.78;4953345;29;20031;-85
2023/12/08 00:34:54;;;;;;;180.82;81.72;;;;;;;0.48;100.00;99925.03;4953011;29;20098;-85
2023/12/08 00:37:20;;;;;;;173.30;77.88;;;;;;;0.58;100.00;99943.78;4937275;29;20121;-86
2023/12/08 00:39:46;;;;;;;173.07;75.18;;;;;;;0.53;100.00;99954.06;4952984;29;20085;-85
2023/12/08 00:42:11;;;;;;;159.85;71.85;;;;;;;0.47;100.00;99939.56;4953212;29;20047;-85
2023/12/08 00:44:37;;;;;;;176.73;80.15;;;;;;;0.51;100.00;99948.09;4953317;29;20047;-85
2023/12/08 00:47:04;;;;;;;181.45;78.07;;;;;;;0.37;100.00;99909.66;4952949;29;20167;-85
2023/12/08 00:49:30;;;;;;;172.35;79.65;;;;;;;0.60;100.00;99942.94;4952932;29;20203;-85
2023/12/08 00:51:55;;;;;;;157.35;71.47;;;;;;;0.40;100.00;99901.97;4952784;29;20039;-85
2023/12/08 00:54:21;;;;;;;148.80;67.30;;;;;;;0.45;100.00;99920.75;4952623;28;20031;-85
2023/12/08 00:56:47;;;;;;;152.30;67.10;;;;;;;0.60;100.00;99965.16;4956873;28;20369;-85
2023/12/08 00:59:12;;;;;;;152.00;69.57;;;;;;;0.22;100.00;99910.53;4974683;28;20077;-85
2023/12/08 01:01:38;;;;;;;157.80;79.43;;;;;;;0.40;100.00;99940.41;4974662;28;20384;-85
2023/12/08 01:04:03;;;;;;;142.35;66.93;;;;;;;0.43;100.00;99937.00;4957161;28;20443;-85
2023/12/08 01:06:28;;;;;;;145.25;65.10;;;;;;;0.54;100.00;99960.03;4957262;28;20026;-86
2023/12/08 01:08:54;;;;;;;135.77;61.17;;;;;;;0.29;100.00;99921.63;4974316;28;20377;-85
2023/12/08 01:11:19;;;;;;;145.73;66.45;;;;;;;0.40;100.00;99926.75;4957187;28;20110;-85
2023/12/08 01:13:44;;;;;;;142.48;66.07;;;;;;;0.58;100.00;99974.56;4957135;28;20137;-85
2023/12/08 01:16:10;;;;;;;146.00;65.78;;;;;;;0.60;100.00;99978.84;4952299;29;20062;-85
2023/12/08 01:18:36;;;;;;;142.25;66.38;;;;;;;0.34;100.00;99932.75;4952806;29;20047;-85
2023/12/08 01:21:01;;;;;;;171.32;86.50;;;;;;;0.50;100.00;99954.91;4952416;29;20531;-85
2023/12/08 01:23:26;;;;;;;150.10;75.07;;;;;;;0.33;100.00;99910.50;4952301;29;20116;-86
2023/12/08 01:25:52;;;;;;;139.75;64.53;;;;;;;0.41;100.00;99918.19;4952324;29;20071;-86
2023/12/08 01:28:17;;;;;;;137.52;63.65;;;;;;;0.57;100.00;99953.19;4952626;29;20070;-86
2023/12/08 01:30:42;;;;;;;138.32;66.15;;;;;;;0.30;100.00;99902.00;4936459;29;20039;-86
2023/12/08 01:33:08;;;;;;;134.48;64.47;;;;;;;0.63;100.00;99949.75;4951872;29;20042;-85
2023/12/08 01:35:33;;;;;;;122.18;58.60;;;;;;;0.62;100.00;99956.59;4952251;29;20050;-85
2023/12/08 01:37:58;;;;;;;128.10;63.17;;;;;;;0.53;100.00;99948.94;4952099;29;20047;-86
2023/12/08 01:40:23;;;;;;;132.90;64.47;;;;;;;0.45;100.00;99932.72;4952204;29;20031;-86
2023/12/08 01:42:49;;;;;;;147.50;77.25;;;;;;;0.48;100.00;99942.97;4951938;29;20047;-86
2023/12/08 01:45:14;;;;;;;131.90;62.03;;;;;;;0.38;100.00;99926.75;4952010;29;20033;-86
2023/12/08 01:47:41;;;;;;;122.10;59.22;;;;;;;0.49;100.00;99942.94;4950678;28;20150;-86
2023/12/08 01:50:08;;;;;;;151.48;69.22;;;;;;;0.40;100.00;99924.19;4973788;28;20048;-85
2023/12/08 01:52:35;;;;;;;126.32;55.20;;;;;;;0.40;100.00;99927.59;4973605;28;20034;-85
2023/12/08 01:55:00;;;;;;;112.88;52.42;;;;;;;0.43;100.00;99931.88;4956238;28;20121;-85
2023/12/08 01:57:26;;;;;;;122.22;56.35;;;;;;;0.50;100.00;99936.97;4973764;28;20131;-85
2023/12/08 01:59:52;;;;;;;113.93;54.47;;;;;;;0.34;100.00;99909.69;4973571;28;20033;-85
2023/12/08 02:02:20;;;;;;;119.68;55.67;;;;;;;0.49;100.00;99924.16;4973699;28;20502;-86
2023/12/08 02:04:48;;;;;;;124.43;56.35;;;;;;;0.37;100.00;99917.34;4973248;28;20089;-85
2023/12/08 02:07:14;;;;;;;122.93;55.42;;;;;;;0.17;100.00;99875.50;4972993;28;20123;-85
2023/12/08 02:09:40;;;;;;;112.93;54.97;;;;;;;0.44;100.00;99920.75;4956282;28;20109;-85
2023/12/08 02:12:05;;;;;;;103.22;49.72;;;;;;;0.30;100.00;99890.03;4956072;28;20073;-85
2023/12/08 02:14:31;;;;;;;101.78;50.03;;;;;;;0.21;100.00;99875.53;4956069;28;20476;-85
2023/12/08 02:17:08;;;;;;;107.63;50.75;;;;;;;0.42;100.00;99895.16;4973183;28;20026;-85
2023/12/08 02:19:34;;;;;;;107.00;51.03;;;;;;;0.48;100.00;99914.78;4973557;28;20102;-85
2023/12/08 02:22:00;;;;;;;114.93;57.83;;;;;;;0.41;100.00;99906.22;4973189;28;20457;-85
2023/12/08 02:24:25;;;;;;;105.82;55.38;;;;;;;0.35;100.00;99892.59;4956049;28;20392;-85
2023/12/08 02:26:51;;;;;;;101.50;53.08;;;;;;;0.35;100.00;99867.81;4956114;28;20073;-85
2023/12/08 02:29:17;;;;;;;102.68;53.30;;;;;;;0.46;100.00;99878.03;4972950;28;20065;-85
2023/12/08 02:31:58;;;;;;;110.43;51.70;;;;;;;0.28;100.00;99835.38;4955975;28;20026;-86
2023/12/08 02:34:25;;;;;;;;;;;;;;;0.62;100.00;99892.53;4973488;28;20547;-85
2023/12/08 02:36:53;;;;;;;97.75;48.03;;;;;;;0.45;100.00;99868.66;4955643;28;19921;-85
2023/12/08 02:39:20;;;;;;;89.88;44.15;;;;;;;0.48;100.00;99879.75;4972834;28;20058;-85
2023/12/08 02:41:45;;;;;;;98.78;50.92;;;;;;;0.42;100.00;99869.53;4973088;28;20041;-85
2023/12/08 02:44:11;;;;;;;97.28;50.13;;;;;;;0.49;100.00;99883.16;4955381;28;20031;-86
2023/12/08 02:46:36;;;;;;;90.05;48.42;;;;;;;0.40;100.00;99860.97;4955565;28;20627;-86
2023/12/08 02:49:02;;;;;;;92.57;46.60;;;;;;;0.49;100.00;99875.47;4955301;28;20411;-86
2023/12/08 02:51:27;;;;;;;89.43;46.65;;;;;;;0.48;100.00;99863.53;4972530;28;20030;-86
2023/12/08 02:53:52;;;;;;;88.75;46.33;;;;;;;0.47;100.00;99855.00;4955391;28;20053;-86
2023/12/08 02:56:18;;;;;;;92.50;46.65;;;;;;;0.35;100.00;99833.66;4955303;28;20058;-86
2023/12/08 02:58:44;;;;;;;91.85;47.10;;;;;;;0.26;100.00;99811.47;4955706;28;20023;-86
2023/12/08 03:01:09;;;;;;;119.10;60.95;;;;;;;0.45;100.00;99848.16;4972335;28;20023;-86
2023/12/08 03:03:35;;;;;;;103.32;55.08;;;;;;;0.27;100.00;99805.50;4955271;28;20038;-86
2023/12/08 03:06:00;;;;;;;91.03;47.63;;;;;;;0.36;100.00;99827.69;4972944;28;20031;-86
2023/12/08 03:08:25;;;;;;;100.43;48.67;;;;;;;0.33;100.00;99833.66;4955578;28;20031;-86
2023/12/08 03:10:51;;;;;;;93.40;45.90;;;;;;;0.33;100.00;99828.53;4950952;29;20063;-86
2023/12/08 03:13:16;;;;;;;89.05;44.30;;;;;;;0.18;100.00;99811.50;4950832;29;20525;-86
2023/12/08 03:15:41;;;;;;;91.65;44.30;;;;;;;0.27;100.00;99836.25;4951310;28;20031;-86
2023/12/08 03:18:07;;;;;;;93.60;49.08;;;;;;;0.02;100.00;99793.59;4954815;29;20035;-85
2023/12/08 03:20:32;;;;;;;93.50;46.00;;;;;;;0.40;100.00;99845.59;4954700;29;20508;-86
2023/12/08 03:22:57;;;;;;;87.82;42.72;;;;;;;0.37;100.00;99835.34;4954845;29;20417;-86
2023/12/08 03:25:23;;;;;;;95.63;45.30;;;;;;;0.40;100.00;99839.63;4938518;29;20031;-86
2023/12/08 03:27:48;;;;;;;90.90;44.40;;;;;;;0.09;100.00;99779.94;4938736;29;20609;-86
2023/12/08 03:30:13;;;;;;;94.13;44.90;;;;;;;0.29;100.00;99808.88;4938465;29;20110;-86
2023/12/08 03:32:39;;;;;;;97.57;46.40;;;;;;;0.29;100.00;99820.84;4954494;29;20378;-86
2023/12/08 03:35:05;;;;;;;102.43;47.45;;;;;;;0.36;100.00;99827.69;4954286;29;20054;-85
2023/12/08 03:37:30;;;;;;;91.88;46.20;;;;;;;0.45;100.00;99833.63;4954236;29;20492;-86
2023/12/08 03:39:55;;;;;;;101.95;47.40;;;;;;;-0.08;100.00;99769.72;4938488;29;20038;-86
2023/12/08 03:42:21;;;;;;;100.05;48.63;;;;;;;0.13;100.00;99826.03;4969574;28;20043;-86
2023/12/08 03:44:46;;;;;;;95.65;47.70;;;;;;;0.16;100.00;99835.38;4976027;28;20113;-85
2023/12/08 03:47:11;;;;;;;94.63;47.42;;;;;;;0.03;100.00;99814.06;4958341;28;20488;-85
2023/12/08 03:49:37;;;;;;;104.38;50.42;;;;;;;0.08;100.00;99808.94;4976410;28;20031;-85
2023/12/08 03:52:02;;;;;;;155.48;78.13;;;;;;;0.23;100.00;99839.66;4976347;28;20078;-86
2023/12/08 03:54:28;;;;;;;156.85;76.68;;;;;;;-0.10;100.00;99769.72;4976011;28;20027;-86
2023/12/08 03:56:53;;;;;;;112.88;55.25;;;;;;;0.19;100.00;99836.25;4958687;28;20035;-85
2023/12/08 03:59:18;;;;;;;112.32;52.55;;;;;;;0.10;100.00;99810.66;4958056;28;20019;-85
2023/12/08 04:01:44;;;;;;;126.82;56.60;;;;;;;0.14;100.00;99834.56;4975786;28;20031;-85
2023/12/08 04:04:11;;;;;;;105.75;50.42;;;;;;;-0.16;100.00;99785.09;4958382;28;20082;-85
2023/12/08 04:06:36;;;;;;;122.88;55.85;;;;;;;-0.04;100.00;99815.81;4958532;28;20121;-86
2023/12/08 04:09:02;;;;;;;116.30;57.45;;;;;;;0.08;100.00;99824.31;4958315;28;20162;-86
2023/12/08 04:11:27;;;;;;;128.43;56.60;;;;;;;-0.16;100.00;99794.47;4958137;28;20023;-86
2023/12/08 04:13:52;;;;;;;102.75;50.47;;;;;;;-0.19;100.00;99786.78;4958238;28;20468;-86
2023/12/08 04:16:18;;;;;;;121.72;53.90;;;;;;;0.02;100.00;99819.19;4975282;28;20038;-86
2023/12/08 04:18:43;;;;;;;107.10;50.08;;;;;;;-0.22;100.00;99784.22;4958446;28;20023;-86
2023/12/08 04:21:09;;;;;;;113.38;51.05;;;;;;;-0.08;100.00;99808.97;4957841;28;20512;-86
2023/12/08 04:23:34;;;;;;;115.35;53.60;;;;;;;0.05;100.00;99814.09;4958184;28;20035;-86
2023/12/08 04:25:59;;;;;;;128.52;58.22;;;;;;;-0.03;100.00;99803.84;4957884;28;20062;-86
2023/12/08 04:28:25;;;;;;;111.60;51.50;;;;;;;0.07;100.00;99813.22;4974839;28;20034;-86
2023/12/08 04:30:50;;;;;;;112.97;50.92;;;;;;;0.03;100.00;99796.16;4957886;28;20031;-86
2023/12/08 04:33:15;;;;;;;106.03;48.00;;;;;;;0.08;100.00;99809.78;4975332;28;20095;-86
2023/12/08 04:35:41;;;;;;;133.65;57.95;;;;;;;-0.08;100.00;99777.41;4975413;28;20022;-86
2023/12/08 04:38:06;;;;;;;108.50;49.67;;;;;;;0.01;100.00;99786.78;4974843;28;20055;-87
2023/12/08 04:40:31;;;;;;;103.47;46.08;;;;;;;-0.02;100.00;99803.00;4957969;28;20139;-86
2023/12/08 04:42:57;;;;;;;110.13;51.40;;;;;;;0.11;100.00;99808.94;4975154;28;20027;-86
2023/12/08 04:45:22;;;;;;;121.38;56.38;;;;;;;0.13;100.00;99794.44;4957309;28;20039;-86
2023/12/08 04:47:47;;;;;;;110.05;50.83;;;;;;;-0.07;100.00;99764.59;4957877;28;20318;-87
2023/12/08 04:50:13;;;;;;;107.13;52.80;;;;;;;0.09;100.00;99783.34;4974668;28;20031;-87
2023/12/08 04:52:38;;;;;;;105.95;48.78;;;;;;;-0.18;100.00;99734.75;4975152;28;20146;-86
2023/12/08 04:55:04;;;;;;;107.57;48.55;;;;;;;-0.11;100.00;99755.22;4974980;28;20464;-86
2023/12/08 04:57:30;;;;;;;106.93;50.22;;;;;;;-0.12;100.00;99755.22;4974821;28;20035;-86
2023/12/08 04:59:56;;;;;;;121.03;54.90;;;;;;;-0.11;100.00;99765.44;4957499;28;20033;-86
2023/12/08 05:02:22;;;;;;;121.63;55.15;;;;;;;-0.07;100.00;99774.00;4974482;28;20026;-86
2023/12/08 05:04:47;;;;;;;326.77;171.35;;;;;;;-0.10;100.00;99754.34;4957745;28;20488;-86
2023/12/08 05:07:12;;;;;;;191.73;97.85;;;;;;;-0.30;100.00;99733.03;4957037;28;20031;-86
2023/12/08 05:09:38;;;;;;;170.90;88.22;;;;;;;-0.09;100.00;99781.66;4957424;28;20110;-86
2023/12/08 05:12:03;;;;;;;282.15;174.25;;;;;;;-0.26;100.00;99750.09;4957148;28;20073;-86
2023/12/08 05:14:29;;;;;;;179.05;100.07;;;;;;;-0.47;100.00;99721.97;4957103;28;20157;-86
2023/12/08 05:16:54;;;;;;;188.25;117.20;;;;;;;-0.23;100.00;99788.50;4974636;28;20030;-86
2023/12/08 05:19:19;;;;;;;181.73;110.65;;;;;;;-0.41;100.00;99755.25;4974321;28;20531;-86
2023/12/08 05:21:45;;;;;;;171.30;88.70;;;;;;;-0.27;100.00;99774.00;4974369;28;20536;-86
2023/12/08 05:24:10;;;;;;;140.52;71.03;;;;;;;-0.64;100.00;99730.50;4974374;28;20148;-86
2023/12/08 05:26:35;;;;;;;124.35;61.75;;;;;;;-0.52;100.00;99752.69;4957103;28;20043;-86
2023/12/08 05:29:01;;;;;;;128.68;66.22;;;;;;;-0.29;100.00;99799.59;4974396;28;20365;-86
2023/12/08 05:31:26;;;;;;;137.55;62.22;;;;;;;-0.45;100.00;99790.22;4973933;28;20031;-86
2023/12/08 05:33:51;;;;;;;137.98;65.50;;;;;;;-0.47;100.00;99798.72;4974232;28;20030;-86
2023/12/08 05:36:17;;;;;;;124.13;56.13;;;;;;;-0.58;100.00;99783.41;4957081;28;20023;-86
2023/12/08 05:38:42;;;;;;;109.80;51.22;;;;;;;-0.48;100.00;99799.59;4956635;28;20047;-86
2023/12/08 05:41:08;;;;;;;112.65;50.67;;;;;;;-0.55;100.00;99788.50;4955924;28;20038;-86
2023/12/08 05:43:33;;;;;;;121.00;57.72;;;;;;;-0.63;100.00;99768.06;4956813;28;20049;-86
2023/12/08 05:45:59;;;;;;;125.07;56.25;;;;;;;-0.64;100.00;99776.56;4956613;28;20046;-86
2023/12/08 05:48:24;;;;;;;110.38;52.75;;;;;;;-0.83;100.00;99756.94;4956609;28;20054;-86
2023/12/08 05:50:50;;;;;;;126.15;57.38;;;;;;;-0.65;100.00;99799.59;4974260;28;20073;-86
2023/12/08 05:53:15;;;;;;;129.82;56.03;;;;;;;-0.78;100.00;99789.34;4956630;28;20209;-86
2023/12/08 05:55:40;;;;;;;117.80;52.58;;;;;;;-0.89;100.00;99796.13;4974506;28;20054;-86
2023/12/08 05:58:06;;;;;;;130.77;56.75;;;;;;;-0.95;100.00;99782.50;4958138;28;20053;-86
2023/12/08 06:00:33;;;;;;;116.55;48.08;;;;;;;-1.07;100.00;99781.59;4957275;28;20030;-86
2023/12/08 06:02:58;;;;;;;100.57;45.10;;;;;;;-1.20;100.00;99786.69;4975019;28;20034;-85
2023/12/08 06:05:23;;;;;;;93.50;45.83;;;;;;;-1.26;100.00;99790.09;4957288;28;20388;-87
2023/12/08 06:07:49;;;;;;;160.48;91.75;;;;;;;-1.38;100.00;99770.44;4958034;28;20061;-87
2023/12/08 06:10:15;;;;;;;120.93;61.72;;;;;;;-1.42;100.00;99763.63;4975824;28;20050;-87
2023/12/08 06:12:40;;;;;;;95.18;46.03;;;;;;;-1.34;100.00;99776.44;4958631;28;20270;-87
2023/12/08 06:15:07;;;;;;;155.20;68.97;;;;;;;-1.27;100.00;99784.09;4958482;28;20615;-87
2023/12/08 06:17:32;;;;;;;173.25;91.70;;;;;;;-1.44;100.00;99765.28;4959251;28;20049;-86
2023/12/08 06:19:58;;;;;;;106.55;45.65;;;;;;;-1.73;100.00;99713.25;4970720;29;20039;-86
2023/12/08 06:22:23;;;;;;;154.80;49.50;;;;;;;-1.39;100.00;99775.53;4970316;29;20050;-87
2023/12/08 06:24:49;;;;;;;109.57;51.90;;;;;;;-1.66;100.00;99730.31;4970802;29;20079;-89
2023/12/08 06:27:15;;;;;;;143.38;52.38;;;;;;;-1.41;100.00;99772.97;4969756;29;20087;-86
2023/12/08 06:29:40;;;;;;;141.65;45.25;;;;;;;-1.84;100.00;99718.34;4966829;29;20042;-87
2023/12/08 06:32:06;;;;;;;92.95;45.03;;;;;;;-1.53;100.00;99772.94;4965827;29;20039;-87
2023/12/08 06:34:31;;;;;;;111.50;47.40;;;;;;;-1.66;100.00;99764.38;4965826;29;20149;-86
2023/12/08 06:36:57;;;;;;;101.57;44.58;;;;;;;-1.57;100.00;99774.63;4960457;29;20400;-87
2023/12/08 06:39:22;;;;;;;119.88;51.90;;;;;;;-1.65;100.00;99766.06;4936399;29;20050;-87
2023/12/08 06:41:48;;;;;;;107.47;46.97;;;;;;;-1.80;100.00;99745.59;4951955;29;20039;-85
2023/12/08 06:44:13;;;;;;;104.35;48.30;;;;;;;-1.60;100.00;99773.75;4951311;29;20479;-87
2023/12/08 06:46:39;;;;;;;105.45;46.97;;;;;;;-1.64;100.00;99765.25;4951900;29;20114;-87
2023/12/08 06:49:04;;;;;;;117.47;47.90;;;;;;;-1.71;100.00;99752.44;4935482;29;20035;-87
2023/12/08 06:51:30;;;;;;;113.43;48.53;;;;;;;-1.81;100.00;99726.88;4950476;29;20066;-87
2023/12/08 06:53:56;;;;;;;110.07;48.65;;;;;;;-1.58;100.00;99772.91;4951230;29;20062;-87
2023/12/08 06:56:22;;;;;;;109.63;48.20;;;;;;;-1.56;100.00;99750.81;4952578;28;20523;-87
2023/12/08 06:58:48;;;;;;;103.03;43.40;;;;;;;-1.63;100.00;99740.56;4972904;28;20062;-87
2023/12/08 07:01:14;;;;;;;112.43;45.95;;;;;;;-1.58;100.00;99755.03;4955395;28;20114;-87
2023/12/08 07:03:39;;;;;;;111.65;49.95;;;;;;;-1.62;100.00;99730.34;4973176;28;20153;-86
2023/12/08 07:06:04;;;;;;;106.93;48.35;;;;;;;-1.57;100.00;99733.75;4955632;28;20391;-87
2023/12/08 07:08:30;;;;;;;173.80;81.45;;;;;;;-1.54;100.00;99748.25;4955291;28;20037;-86
2023/12/08 07:10:55;;;;;;;127.70;49.67;;;;;;;-1.60;100.00;99748.19;4972978;28;20085;-87
2023/12/08 07:13:20;;;;;;;93.63;47.22;;;;;;;-1.61;100.00;99754.16;4954942;28;20027;-87
2023/12/08 07:15:46;;;;;;;105.50;46.58;;;;;;;-1.55;100.00;99742.28;4972715;28;20089;-87
2023/12/08 07:18:11;;;;;;;134.70;57.38;;;;;;;-1.46;100.00;99753.38;4971557;28;20054;-86
2023/12/08 07:20:36;;;;;;;160.05;83.05;;;;;;;-1.55;100.00;99755.06;4954797;28;20065;-86
2023/12/08 07:23:02;;;;;;;180.02;75.95;;;;;;;-1.34;100.00;99769.63;4955033;28;20039;-86
2023/12/08 07:25:27;;;;;;;116.35;49.85;;;;;;;-1.39;100.00;99747.44;4954403;28;20023;-86
2023/12/08 07:27:52;;;;;;;101.50;45.42;;;;;;;-1.46;100.00;99723.59;4955258;28;20027;-87
2023/12/08 07:30:18;;;;;;;100.05;48.72;;;;;;;-1.35;100.00;99739.81;4954439;28;20089;-85
2023/12/08 07:32:43;;;;;;;115.38;47.03;;;;;;;-1.37;100.00;99751.72;4954556;28;20463;-87
2023/12/08 07:35:09;;;;;;;104.55;42.67;;;;;;;-1.37;100.00;99748.31;4954742;28;20033;-87
2023/12/08 07:37:39;;;;;;;99.72;42.65;;;;;;;-1.40;100.00;99743.19;4954578;28;20138;-86
2023/12/08 07:40:05;;;;;;;125.85;47.92;;;;;;;-1.36;100.00;99750.84;4972007;28;20538;-87
2023/12/08 07:42:31;;;;;;;105.95;44.20;;;;;;;-1.34;100.00;99766.22;4954960;28;20031;-87
2023/12/08 07:44:56;;;;;;;94.65;43.92;;;;;;;-1.39;100.00;99750.88;4955006;28;20038;-87
2023/12/08 07:47:21;;;;;;;98.88;45.65;;;;;;;-1.36;100.00;99737.22;4954609;28;20042;-87
2023/12/08 07:49:47;;;;;;;111.97;47.28;;;;;;;-1.35;100.00;99729.59;4954884;28;20494;-87
2023/12/08 07:52:14;;;;;;;114.45;48.47;;;;;;;-1.40;100.00;99705.69;4971826;28;20102;-87
2023/12/08 07:54:39;;;;;;;111.72;47.65;;;;;;;-1.26;100.00;99723.66;4972067;28;20037;-87
2023/12/08 07:57:05;;;;;;;127.38;54.47;;;;;;;-1.22;100.00;99724.47;4972142;28;20043;-87
2023/12/08 07:59:30;;;;;;;120.82;51.90;;;;;;;-1.16;100.00;99729.63;4971779;28;20038;-87
2023/12/08 08:01:55;;;;;;;106.40;46.78;;;;;;;-1.21;100.00;99716.84;4955009;28;20482;-87
2023/12/08 08:04:21;;;;;;;100.07;45.42;;;;;;;-1.06;100.00;99733.88;4975491;28;20031;-87
2023/12/08 08:06:47;;;;;;;106.70;47.85;;;;;;;-0.98;100.00;99736.47;4958661;28;20121;-87
2023/12/08 08:09:12;;;;;;;100.47;46.35;;;;;;;-1.17;100.00;99699.81;4958278;28;20058;-87
2023/12/08 08:11:37;;;;;;;116.97;48.22;;;;;;;-0.88;100.00;99739.03;4958340;28;20061;-87
2023/12/08 08:14:03;;;;;;;135.82;49.97;;;;;;;-1.00;100.00;99721.13;4958124;28;20032;-87
2023/12/08 08:16:28;;;;;;;115.82;50.00;;;;;;;-0.92;100.00;99749.28;4975570;28;20046;-86
2023/12/08 08:18:53;;;;;;;118.55;50.05;;;;;;;-1.12;100.00;99721.09;4958331;28;20061;-87
2023/12/08 08:21:19;;;;;;;140.63;56.00;;;;;;;-0.98;100.00;99736.47;4957287;28;20023;-86
2023/12/08 08:23:44;;;;;;;139.27;56.22;;;;;;;-1.02;100.00;99744.13;4956791;28;20062;-86
2023/12/08 08:26:10;;;;;;;136.55;54.08;;;;;;;-0.96;100.00;99753.53;4974415;28;20503;-86
2023/12/08 08:28:35;;;;;;;140.23;54.65;;;;;;;-0.93;100.00;99727.94;4974246;28;20094;-85
2023/12/08 08:31:01;;;;;;;140.32;58.45;;;;;;;-0.91;100.00;99750.97;4956974;28;20031;-86
2023/12/08 08:33:26;;;;;;;158.00;62.90;;;;;;;-1.00;100.00;99728.81;4956322;28;20484;-86
2023/12/08 08:35:52;;;;;;;148.43;59.15;;;;;;;-0.78;100.00;99747.56;4956539;28;20041;-86
2023/12/08 08:38:17;;;;;;;193.52;60.90;;;;;;;-0.74;100.00;99745.88;4956280;28;20085;-86
2023/12/08 08:40:43;;;;;;;139.90;60.92;;;;;;;-0.71;100.00;99764.63;4974006;28;20080;-85
2023/12/08 08:43:08;;;;;;;149.27;61.72;;;;;;;-0.74;100.00;99748.44;4956182;28;20493;-86
2023/12/08 08:45:33;;;;;;;148.02;59.60;;;;;;;-0.75;100.00;99760.38;4973772;28;20022;-86
2023/12/08 08:47:59;;;;;;;154.05;60.05;;;;;;;-0.80;100.00;99768.03;4956644;28;20042;-86
2023/12/08 08:50:24;;;;;;;198.13;77.20;;;;;;;-0.82;100.00;99745.84;4956194;28;20109;-86
2023/12/08 08:52:50;;;;;;;185.30;73.40;;;;;;;-0.88;100.00;99735.63;4975366;28;20039;-86
2023/12/08 08:55:15;;;;;;;168.70;64.53;;;;;;;-0.79;100.00;99751.84;4974372;28;20042;-86
2023/12/08 08:57:41;;;;;;;175.70;66.97;;;;;;;-0.73;100.00;99753.53;4975029;28;20026;-86
2023/12/08 09:00:11;;;;;;;176.45;74.45;;;;;;;-0.63;100.00;99755.25;4957686;28;20507;-88
2023/12/08 09:02:37;;;;;;;176.70;71.83;;;;;;;-0.79;100.00;99736.50;4957538;28;20380;-86
2023/12/08 09:05:02;;;;;;;182.82;68.70;;;;;;;-0.72;100.00;99739.88;4957627;28;20278;-87
2023/12/08 09:07:28;;;;;;;208.32;82.28;;;;;;;-0.88;100.00;99716.03;4957004;28;20030;-87
2023/12/08 09:09:53;;;;;;;226.55;96.65;;;;;;;-0.67;100.00;99757.81;4957273;28;20113;-87
2023/12/08 09:12:19;;;;;;;227.60;85.13;;;;;;;-1.07;100.00;99681.06;4956694;28;20129;-87
2023/12/08 09:14:44;;;;;;;233.68;78.63;;;;;;;-1.02;100.00;99677.66;4956608;28;20074;-87
2023/12/08 09:17:09;;;;;;;196.48;78.20;;;;;;;-0.84;100.00;99710.06;4956816;28;20038;-87
2023/12/08 09:19:35;;;;;;;237.85;83.07;;;;;;;-0.73;100.00;99719.44;4956442;28;20031;-87
2023/12/08 09:22:00;;;;;;;227.38;84.25;;;;;;;-0.59;100.00;99735.63;4956752;28;20031;-87
2023/12/08 09:24:26;;;;;;;203.00;74.80;;;;;;;-0.60;100.00;99713.47;4974132;28;20694;-87
2023/12/08 09:26:54;;;;;;;221.40;79.45;;;;;;;-0.55;100.00;99710.06;4956400;28;20092;-87
2023/12/08 09:29:21;;;;;;;237.80;79.25;;;;;;;-0.48;100.00;99723.69;4974375;28;20064;-86
2023/12/08 09:31:46;;;;;;;206.02;76.25;;;;;;;-0.44;100.00;99719.44;4956957;28;20035;-86
2023/12/08 09:34:12;;;;;;;233.43;80.35;;;;;;;-0.77;100.00;99664.88;4974291;28;20023;-87
2023/12/08 09:36:37;;;;;;;213.98;76.25;;;;;;;-0.61;100.00;99710.06;4956645;28;20031;-87
2023/12/08 09:39:08;;;;;;;209.32;78.30;;;;;;;-0.42;100.00;99728.81;4956502;28;20101;-87
2023/12/08 09:41:37;;;;;;;223.13;77.65;;;;;;;-0.40;100.00;99719.41;4956319;28;20041;-87
2023/12/08 09:44:09;;;;;;;230.68;80.45;;;;;;;-0.44;100.00;99706.63;4956774;28;20081;-87
2023/12/08 09:46:35;;;;;;;234.63;85.75;;;;;;;-0.38;100.00;99706.59;4956407;28;20169;-87
2023/12/08 09:49:07;;;;;;;241.98;79.05;;;;;;;-0.39;100.00;99707.47;4956832;28;20113;-86
2023/12/08 09:51:32;;;;;;;239.48;79.97;;;;;;;-0.40;100.00;99719.41;4956546;28;20034;-87
2023/12/08 09:53:57;;;;;;;217.82;78.55;;;;;;;-0.48;100.00;99684.47;4956533;28;20460;-87
2023/12/08 09:56:25;;;;;;;252.88;86.22;;;;;;;-0.54;100.00;99668.28;4956361;28;20110;-87
2023/12/08 09:58:51;;;;;;;253.90;81.35;;;;;;;-0.71;100.00;99644.44;4956676;28;20030;-87
2023/12/08 10:01:17;;;;;;;230.15;77.65;;;;;;;-0.59;100.00;99654.66;4956399;28;20034;-87
2023/12/08 10:03:43;;;;;;;246.02;85.03;;;;;;;-0.39;100.00;99675.06;4951668;29;20043;-86
2023/12/08 10:06:10;;;;;;;259.70;86.82;;;;;;;-0.23;100.00;99688.69;4935992;29;20523;-87
2023/12/08 10:08:36;;;;;;;271.20;89.97;;;;;;;-0.38;100.00;99666.56;4935566;29;20043;-87
2023/12/08 10:11:02;;;;;;;264.45;91.88;;;;;;;-0.97;100.00;99562.63;4952054;29;20420;-87
2023/12/08 10:13:28;;;;;;;277.15;89.50;;;;;;;-0.30;100.00;99679.31;4951350;29;20040;-86
2023/12/08 10:15:55;;;;;;;276.60;88.50;;;;;;;-0.40;100.00;99647.78;4951956;29;20027;-87
2023/12/08 10:18:24;;;;;;;257.85;89.97;;;;;;;-0.22;100.00;99666.50;4951467;29;20039;-87
2023/12/08 10:20:49;;;;;;;267.38;86.10;;;;;;;-0.19;100.00;99671.59;4951664;29;20043;-86
2023/12/08 10:23:21;;;;;;;251.05;78.93;;;;;;;-0.19;100.00;99675.03;4951547;29;20416;-87
2023/12/08 10:25:47;;;;;;;258.00;79.43;;;;;;;-0.33;100.00;99667.38;4935043;29;20464;-86
2023/12/08 10:28:13;;;;;;;257.92;81.28;;;;;;;-0.34;100.00;99652.88;4951527;29;20035;-87
2023/12/08 10:30:45;;;;;;;240.43;78.50;;;;;;;-0.38;100.00;99645.19;4951378;29;20509;-87
2023/12/08 10:33:23;;;;;;;286.10;87.43;;;;;;;-0.35;100.00;99645.19;4951376;29;20417;-86
2023/12/08 10:35:50;;;;;;;251.20;82.43;;;;;;;-0.50;100.00;99607.72;4972299;28;20045;-86
2023/12/08 10:38:16;;;;;;;260.63;84.60;;;;;;;-0.29;100.00;99617.91;4957445;28;20062;-87
2023/12/08 10:40:48;;;;;;;251.38;81.55;;;;;;;-0.41;100.00;99600.00;4972882;28;20034;-86
2023/12/08 10:43:22;;;;;;;224.75;77.25;;;;;;;-0.16;100.00;99626.38;4955607;28;20022;-87
2023/12/08 10:45:51;;;;;;;275.83;90.35;;;;;;;-0.24;100.00;99596.56;4955641;28;20027;-86
2023/12/08 10:48:21;;;;;;;262.15;80.18;;;;;;;-0.39;100.00;99572.69;4955905;28;20117;-87
2023/12/08 10:50:47;;;;;;;285.60;102.57;;;;;;;-0.29;100.00;99587.19;4955934;28;20078;-86
2023/12/08 10:53:15;;;;;;;251.10;81.60;;;;;;;-0.18;100.00;99602.47;4972908;28;20106;-87
2023/12/08 10:55:40;;;;;;;251.63;83.00;;;;;;;-0.15;100.00;99601.63;4955544;28;20031;-86
2023/12/08 10:58:12;;;;;;;245.10;80.93;;;;;;;-0.09;100.00;99620.34;4973231;28;20070;-86